sensor_id;sensor_type;location;lat;lon;timestamp;temperature;humidity
23329;DHT22;11836;51.050;3.716;2023-02-04T00:01:57;17.90;98.40
23329;DHT22;11836;51.050;3.716;2023-02-04T00:04:23;17.90;98.50
23329;DHT22;11836;51.050;3.716;2023-02-04T00:06:48;17.90;98.50
23329;DHT22;11836;51.050;3.716;2023-02-04T00:09:14;17.90;98.40
23329;DHT22;11836;51.050;3.716;2023-02-04T00:11:41;17.90;98.40
23329;DHT22;11836;51.050;3.716;2023-02-04T00:14:07;17.90;98.50
23329;DHT22;11836;51.050;3.716;2023-02-04T00:16:32;17.80;98.40
23329;DHT22;11836;51.050;3.716;2023-02-04T00:18:58;17.90;98.40
23329;DHT22;11836;51.050;3.716;2023-02-04T00:21:24;17.80;98.40
23329;DHT22;11836;51.050;3.716;2023-02-04T00:23:49;17.80;98.40
23329;DHT22;11836;51.050;3.716;2023-02-04T00:26:18;17.80;98.30
23329;DHT22;11836;51.050;3.716;2023-02-04T00:28:44;17.80;98.40
23329;DHT22;11836;51.050;3.716;2023-02-04T00:31:09;17.80;98.40
23329;DHT22;11836;51.050;3.716;2023-02-04T00:33:35;17.80;98.40
23329;DHT22;11836;51.050;3.716;2023-02-04T00:36:04;17.80;98.40
23329;DHT22;11836;51.050;3.716;2023-02-04T00:38:33;17.80;98.40
23329;DHT22;11836;51.050;3.716;2023-02-04T00:40:58;17.80;98.40
23329;DHT22;11836;51.050;3.716;2023-02-04T00:43:24;17.80;98.40
23329;DHT22;11836;51.050;3.716;2023-02-04T00:45:49;17.80;98.50
23329;DHT22;11836;51.050;3.716;2023-02-04T00:48:15;17.80;98.60
23329;DHT22;11836;51.050;3.716;2023-02-04T00:50:41;17.70;98.60
23329;DHT22;11836;51.050;3.716;2023-02-04T00:53:06;17.70;98.50
23329;DHT22;11836;51.050;3.716;2023-02-04T00:55:32;17.70;98.50
23329;DHT22;11836;51.050;3.716;2023-02-04T00:57:58;17.70;98.50
23329;DHT22;11836;51.050;3.716;2023-02-04T01:00:24;17.70;98.50
23329;DHT22;11836;51.050;3.716;2023-02-04T01:02:49;17.70;98.50
23329;DHT22;11836;51.050;3.716;2023-02-04T01:05:15;17.70;98.50
23329;DHT22;11836;51.050;3.716;2023-02-04T01:07:41;17.70;98.50
23329;DHT22;11836;51.050;3.716;2023-02-04T01:10:06;17.70;98.50
23329;DHT22;11836;51.050;3.716;2023-02-04T01:12:32;17.70;98.50
23329;DHT22;11836;51.050;3.716;2023-02-04T01:14:58;17.70;98.50
23329;DHT22;11836;51.050;3.716;2023-02-04T01:17:24;17.70;98.50
23329;DHT22;11836;51.050;3.716;2023-02-04T01:19:50;17.70;98.50
23329;DHT22;11836;51.050;3.716;2023-02-04T01:22:15;17.70;98.50
23329;DHT22;11836;51.050;3.716;2023-02-04T01:24:41;17.60;98.40
23329;DHT22;11836;51.050;3.716;2023-02-04T01:27:07;17.60;98.40
23329;DHT22;11836;51.050;3.716;2023-02-04T01:29:32;17.60;98.40
23329;DHT22;11836;51.050;3.716;2023-02-04T01:31:59;17.70;98.40
23329;DHT22;11836;51.050;3.716;2023-02-04T01:34:25;17.60;98.40
23329;DHT22;11836;51.050;3.716;2023-02-04T01:36:50;17.60;98.40
23329;DHT22;11836;51.050;3.716;2023-02-04T01:39:16;17.60;98.40
23329;DHT22;11836;51.050;3.716;2023-02-04T01:41:42;17.60;98.40
23329;DHT22;11836;51.050;3.716;2023-02-04T01:44:08;17.60;98.40
23329;DHT22;11836;51.050;3.716;2023-02-04T01:46:33;17.60;98.40
23329;DHT22;11836;51.050;3.716;2023-02-04T01:49:02;17.60;98.40
23329;DHT22;11836;51.050;3.716;2023-02-04T01:51:28;17.60;98.40
23329;DHT22;11836;51.050;3.716;2023-02-04T01:53:57;17.60;98.30
23329;DHT22;11836;51.050;3.716;2023-02-04T01:56:25;17.60;98.40
23329;DHT22;11836;51.050;3.716;2023-02-04T01:58:51;17.60;98.30
23329;DHT22;11836;51.050;3.716;2023-02-04T02:01:38;17.50;98.30
23329;DHT22;11836;51.050;3.716;2023-02-04T02:04:09;17.50;98.30
23329;DHT22;11836;51.050;3.716;2023-02-04T02:06:37;17.50;98.30
23329;DHT22;11836;51.050;3.716;2023-02-04T02:09:04;17.50;98.30
23329;DHT22;11836;51.050;3.716;2023-02-04T02:11:31;17.50;98.30
23329;DHT22;11836;51.050;3.716;2023-02-04T02:13:57;17.50;98.30
23329;DHT22;11836;51.050;3.716;2023-02-04T02:16:23;17.50;98.30
23329;DHT22;11836;51.050;3.716;2023-02-04T02:18:49;17.50;98.30
23329;DHT22;11836;51.050;3.716;2023-02-04T02:21:17;17.50;98.30
23329;DHT22;11836;51.050;3.716;2023-02-04T02:23:54;17.50;98.20
23329;DHT22;11836;51.050;3.716;2023-02-04T02:26:23;17.50;98.20
23329;DHT22;11836;51.050;3.716;2023-02-04T02:28:49;17.40;98.20
23329;DHT22;11836;51.050;3.716;2023-02-04T02:31:17;17.40;98.20
23329;DHT22;11836;51.050;3.716;2023-02-04T02:33:44;17.50;98.20
23329;DHT22;11836;51.050;3.716;2023-02-04T02:36:10;17.40;98.20
23329;DHT22;11836;51.050;3.716;2023-02-04T02:38:36;17.50;98.20
23329;DHT22;11836;51.050;3.716;2023-02-04T02:41:03;17.40;98.10
23329;DHT22;11836;51.050;3.716;2023-02-04T02:43:30;17.40;98.10
23329;DHT22;11836;51.050;3.716;2023-02-04T02:45:58;17.40;98.20
23329;DHT22;11836;51.050;3.716;2023-02-04T02:48:25;17.40;98.30
23329;DHT22;11836;51.050;3.716;2023-02-04T02:50:50;17.40;98.30
23329;DHT22;11836;51.050;3.716;2023-02-04T02:53:18;17.40;98.30
23329;DHT22;11836;51.050;3.716;2023-02-04T02:55:45;17.30;98.20
23329;DHT22;11836;51.050;3.716;2023-02-04T02:58:21;17.40;98.20
23329;DHT22;11836;51.050;3.716;2023-02-04T03:00:47;17.40;98.20
23329;DHT22;11836;51.050;3.716;2023-02-04T03:03:17;17.30;98.20
23329;DHT22;11836;51.050;3.716;2023-02-04T03:05:46;17.40;98.20
23329;DHT22;11836;51.050;3.716;2023-02-04T03:08:13;17.30;98.20
23329;DHT22;11836;51.050;3.716;2023-02-04T03:10:41;17.30;98.20
23329;DHT22;11836;51.050;3.716;2023-02-04T03:13:08;17.30;98.20
23329;DHT22;11836;51.050;3.716;2023-02-04T03:15:34;17.30;98.20
23329;DHT22;11836;51.050;3.716;2023-02-04T03:18:00;17.30;98.30
23329;DHT22;11836;51.050;3.716;2023-02-04T03:20:28;17.30;98.20
23329;DHT22;11836;51.050;3.716;2023-02-04T03:22:55;17.30;98.20
23329;DHT22;11836;51.050;3.716;2023-02-04T03:25:22;17.30;98.20
23329;DHT22;11836;51.050;3.716;2023-02-04T03:27:53;17.20;98.10
23329;DHT22;11836;51.050;3.716;2023-02-04T03:30:20;17.30;98.20
23329;DHT22;11836;51.050;3.716;2023-02-04T03:32:46;17.20;98.20
23329;DHT22;11836;51.050;3.716;2023-02-04T03:35:12;17.20;98.20
23329;DHT22;11836;51.050;3.716;2023-02-04T03:37:37;17.20;98.10
23329;DHT22;11836;51.050;3.716;2023-02-04T03:40:04;17.30;98.20
23329;DHT22;11836;51.050;3.716;2023-02-04T03:42:30;17.20;98.20
23329;DHT22;11836;51.050;3.716;2023-02-04T03:44:55;17.20;98.20
23329;DHT22;11836;51.050;3.716;2023-02-04T03:47:21;17.20;98.20
23329;DHT22;11836;51.050;3.716;2023-02-04T03:49:47;17.20;98.20
23329;DHT22;11836;51.050;3.716;2023-02-04T03:52:12;17.20;98.20
23329;DHT22;11836;51.050;3.716;2023-02-04T03:54:38;17.20;98.20
23329;DHT22;11836;51.050;3.716;2023-02-04T03:57:03;17.20;98.20
23329;DHT22;11836;51.050;3.716;2023-02-04T03:59:29;17.20;98.20
23329;DHT22;11836;51.050;3.716;2023-02-04T04:01:55;17.10;98.20
23329;DHT22;11836;51.050;3.716;2023-02-04T04:04:21;17.20;98.20
23329;DHT22;11836;51.050;3.716;2023-02-04T04:06:46;17.10;98.20
23329;DHT22;11836;51.050;3.716;2023-02-04T04:09:12;17.10;98.20
23329;DHT22;11836;51.050;3.716;2023-02-04T04:11:37;17.10;98.50
23329;DHT22;11836;51.050;3.716;2023-02-04T04:14:03;17.10;98.20
23329;DHT22;11836;51.050;3.716;2023-02-04T04:16:29;17.10;98.20
23329;DHT22;11836;51.050;3.716;2023-02-04T04:18:54;17.10;98.10
23329;DHT22;11836;51.050;3.716;2023-02-04T04:21:20;17.10;98.20
23329;DHT22;11836;51.050;3.716;2023-02-04T04:23:46;17.10;98.20
23329;DHT22;11836;51.050;3.716;2023-02-04T04:26:12;17.10;98.10
23329;DHT22;11836;51.050;3.716;2023-02-04T04:28:38;17.10;98.20
23329;DHT22;11836;51.050;3.716;2023-02-04T04:31:03;17.10;98.20
23329;DHT22;11836;51.050;3.716;2023-02-04T04:33:29;17.00;98.20
23329;DHT22;11836;51.050;3.716;2023-02-04T04:35:55;17.10;98.20
23329;DHT22;11836;51.050;3.716;2023-02-04T04:38:20;17.00;98.10
23329;DHT22;11836;51.050;3.716;2023-02-04T04:40:46;17.00;98.10
23329;DHT22;11836;51.050;3.716;2023-02-04T04:43:12;17.00;98.20
23329;DHT22;11836;51.050;3.716;2023-02-04T04:45:37;17.00;98.20
23329;DHT22;11836;51.050;3.716;2023-02-04T04:48:03;17.00;98.20
23329;DHT22;11836;51.050;3.716;2023-02-04T04:50:29;17.00;98.20
23329;DHT22;11836;51.050;3.716;2023-02-04T04:52:54;17.00;98.20
23329;DHT22;11836;51.050;3.716;2023-02-04T04:55:20;17.00;98.20
23329;DHT22;11836;51.050;3.716;2023-02-04T04:57:46;17.00;98.10
23329;DHT22;11836;51.050;3.716;2023-02-04T05:00:15;17.00;98.20
23329;DHT22;11836;51.050;3.716;2023-02-04T05:02:41;17.00;98.20
23329;DHT22;11836;51.050;3.716;2023-02-04T05:05:08;17.00;98.10
23329;DHT22;11836;51.050;3.716;2023-02-04T05:07:33;17.00;98.10
23329;DHT22;11836;51.050;3.716;2023-02-04T05:09:59;17.00;98.10
23329;DHT22;11836;51.050;3.716;2023-02-04T05:12:24;17.00;98.20
23329;DHT22;11836;51.050;3.716;2023-02-04T05:14:50;17.00;98.10
23329;DHT22;11836;51.050;3.716;2023-02-04T05:17:16;16.90;98.10
23329;DHT22;11836;51.050;3.716;2023-02-04T05:19:41;17.00;98.10
23329;DHT22;11836;51.050;3.716;2023-02-04T05:22:07;16.90;98.10
23329;DHT22;11836;51.050;3.716;2023-02-04T05:24:33;16.90;98.10
23329;DHT22;11836;51.050;3.716;2023-02-04T05:26:58;16.90;98.10
23329;DHT22;11836;51.050;3.716;2023-02-04T05:29:24;16.90;98.10
23329;DHT22;11836;51.050;3.716;2023-02-04T05:31:49;16.90;98.00
23329;DHT22;11836;51.050;3.716;2023-02-04T05:34:15;16.90;98.10
23329;DHT22;11836;51.050;3.716;2023-02-04T05:36:41;16.90;98.00
23329;DHT22;11836;51.050;3.716;2023-02-04T05:39:06;16.90;98.00
23329;DHT22;11836;51.050;3.716;2023-02-04T05:41:32;16.90;98.00
23329;DHT22;11836;51.050;3.716;2023-02-04T05:43:58;16.90;98.00
23329;DHT22;11836;51.050;3.716;2023-02-04T05:46:23;16.90;98.00
23329;DHT22;11836;51.050;3.716;2023-02-04T05:48:49;16.90;98.10
23329;DHT22;11836;51.050;3.716;2023-02-04T05:51:15;16.90;98.10
23329;DHT22;11836;51.050;3.716;2023-02-04T05:53:40;16.90;98.10
23329;DHT22;11836;51.050;3.716;2023-02-04T05:56:06;16.90;98.10
23329;DHT22;11836;51.050;3.716;2023-02-04T05:58:32;16.90;98.10
23329;DHT22;11836;51.050;3.716;2023-02-04T06:01:01;16.80;98.10
23329;DHT22;11836;51.050;3.716;2023-02-04T06:03:29;16.80;98.10
23329;DHT22;11836;51.050;3.716;2023-02-04T06:05:55;16.80;98.10
23329;DHT22;11836;51.050;3.716;2023-02-04T06:08:21;16.80;98.10
23329;DHT22;11836;51.050;3.716;2023-02-04T06:10:47;16.80;98.10
23329;DHT22;11836;51.050;3.716;2023-02-04T06:13:13;16.80;98.10
23329;DHT22;11836;51.050;3.716;2023-02-04T06:15:39;16.80;98.10
23329;DHT22;11836;51.050;3.716;2023-02-04T06:18:04;16.80;98.20
23329;DHT22;11836;51.050;3.716;2023-02-04T06:20:30;16.80;98.10
23329;DHT22;11836;51.050;3.716;2023-02-04T06:22:55;16.80;98.10
23329;DHT22;11836;51.050;3.716;2023-02-04T06:25:21;16.80;98.10
23329;DHT22;11836;51.050;3.716;2023-02-04T06:27:47;16.80;98.10
23329;DHT22;11836;51.050;3.716;2023-02-04T06:30:14;16.80;98.10
23329;DHT22;11836;51.050;3.716;2023-02-04T06:32:40;16.80;98.10
23329;DHT22;11836;51.050;3.716;2023-02-04T06:35:06;16.70;98.10
23329;DHT22;11836;51.050;3.716;2023-02-04T06:37:32;16.70;98.10
23329;DHT22;11836;51.050;3.716;2023-02-04T06:39:58;16.80;98.20
23329;DHT22;11836;51.050;3.716;2023-02-04T06:42:24;16.70;98.20
23329;DHT22;11836;51.050;3.716;2023-02-04T06:44:51;16.70;98.20
23329;DHT22;11836;51.050;3.716;2023-02-04T06:47:17;16.80;98.20
23329;DHT22;11836;51.050;3.716;2023-02-04T06:49:45;16.70;98.10
23329;DHT22;11836;51.050;3.716;2023-02-04T06:52:11;16.70;98.10
23329;DHT22;11836;51.050;3.716;2023-02-04T06:54:36;16.70;98.10
23329;DHT22;11836;51.050;3.716;2023-02-04T06:57:03;16.70;98.20
23329;DHT22;11836;51.050;3.716;2023-02-04T06:59:38;16.70;98.20
23329;DHT22;11836;51.050;3.716;2023-02-04T07:02:05;16.70;98.20
23329;DHT22;11836;51.050;3.716;2023-02-04T07:04:31;16.70;98.20
23329;DHT22;11836;51.050;3.716;2023-02-04T07:06:57;16.70;98.20
23329;DHT22;11836;51.050;3.716;2023-02-04T07:09:23;16.70;98.20
23329;DHT22;11836;51.050;3.716;2023-02-04T07:11:48;16.70;98.20
23329;DHT22;11836;51.050;3.716;2023-02-04T07:14:14;16.70;98.20
23329;DHT22;11836;51.050;3.716;2023-02-04T07:16:41;16.70;98.20
23329;DHT22;11836;51.050;3.716;2023-02-04T07:19:07;16.60;98.80
23329;DHT22;11836;51.050;3.716;2023-02-04T07:21:33;16.70;98.70
23329;DHT22;11836;51.050;3.716;2023-02-04T07:23:59;16.60;98.70
23329;DHT22;11836;51.050;3.716;2023-02-04T07:26:24;16.60;98.90
23329;DHT22;11836;51.050;3.716;2023-02-04T07:28:50;16.40;99.90
23329;DHT22;11836;51.050;3.716;2023-02-04T07:31:16;16.20;99.90
23329;DHT22;11836;51.050;3.716;2023-02-04T07:33:42;16.20;99.90
23329;DHT22;11836;51.050;3.716;2023-02-04T07:36:07;16.20;99.90
23329;DHT22;11836;51.050;3.716;2023-02-04T07:38:33;16.10;99.80
23329;DHT22;11836;51.050;3.716;2023-02-04T07:40:59;16.10;99.70
23329;DHT22;11836;51.050;3.716;2023-02-04T07:43:24;16.20;99.70
23329;DHT22;11836;51.050;3.716;2023-02-04T07:45:50;16.20;99.70
23329;DHT22;11836;51.050;3.716;2023-02-04T07:48:18;16.30;99.70
23329;DHT22;11836;51.050;3.716;2023-02-04T07:50:44;16.30;99.70
23329;DHT22;11836;51.050;3.716;2023-02-04T07:53:09;16.30;99.80
23329;DHT22;11836;51.050;3.716;2023-02-04T07:55:35;16.40;99.80
23329;DHT22;11836;51.050;3.716;2023-02-04T07:58:01;16.40;99.90
23329;DHT22;11836;51.050;3.716;2023-02-04T08:00:27;16.50;99.90
23329;DHT22;11836;51.050;3.716;2023-02-04T08:02:53;16.60;99.90
23329;DHT22;11836;51.050;3.716;2023-02-04T08:05:18;16.60;99.90
23329;DHT22;11836;51.050;3.716;2023-02-04T08:07:44;16.60;99.90
23329;DHT22;11836;51.050;3.716;2023-02-04T08:10:10;16.70;99.90
23329;DHT22;11836;51.050;3.716;2023-02-04T08:12:36;16.70;99.90
23329;DHT22;11836;51.050;3.716;2023-02-04T08:15:02;16.80;99.90
23329;DHT22;11836;51.050;3.716;2023-02-04T08:17:28;16.80;99.90
23329;DHT22;11836;51.050;3.716;2023-02-04T08:19:54;16.80;99.90
23329;DHT22;11836;51.050;3.716;2023-02-04T08:22:21;16.90;99.90
23329;DHT22;11836;51.050;3.716;2023-02-04T08:24:46;16.90;99.90
23329;DHT22;11836;51.050;3.716;2023-02-04T08:27:12;16.90;99.90
23329;DHT22;11836;51.050;3.716;2023-02-04T08:29:38;17.00;99.90
23329;DHT22;11836;51.050;3.716;2023-02-04T08:32:04;17.00;99.90
23329;DHT22;11836;51.050;3.716;2023-02-04T08:34:30;17.10;99.90
23329;DHT22;11836;51.050;3.716;2023-02-04T08:36:55;17.10;99.90
23329;DHT22;11836;51.050;3.716;2023-02-04T08:39:21;17.20;99.90
23329;DHT22;11836;51.050;3.716;2023-02-04T08:41:47;17.20;99.90
23329;DHT22;11836;51.050;3.716;2023-02-04T08:44:16;17.20;99.90
23329;DHT22;11836;51.050;3.716;2023-02-04T08:46:41;17.30;99.90
23329;DHT22;11836;51.050;3.716;2023-02-04T08:49:07;17.30;99.90
23329;DHT22;11836;51.050;3.716;2023-02-04T08:51:33;17.30;99.90
23329;DHT22;11836;51.050;3.716;2023-02-04T08:53:58;17.40;99.90
23329;DHT22;11836;51.050;3.716;2023-02-04T08:56:24;17.40;99.90
23329;DHT22;11836;51.050;3.716;2023-02-04T08:58:50;17.50;99.90
23329;DHT22;11836;51.050;3.716;2023-02-04T09:01:17;17.50;99.90
23329;DHT22;11836;51.050;3.716;2023-02-04T09:03:43;17.50;99.90
23329;DHT22;11836;51.050;3.716;2023-02-04T09:06:10;17.50;99.90
23329;DHT22;11836;51.050;3.716;2023-02-04T09:08:36;17.50;99.90
23329;DHT22;11836;51.050;3.716;2023-02-04T09:11:02;17.60;99.90
23329;DHT22;11836;51.050;3.716;2023-02-04T09:13:29;17.60;99.90
23329;DHT22;11836;51.050;3.716;2023-02-04T09:15:55;17.60;99.90
23329;DHT22;11836;51.050;3.716;2023-02-04T09:18:20;17.70;99.90
23329;DHT22;11836;51.050;3.716;2023-02-04T09:20:50;17.70;99.90
23329;DHT22;11836;51.050;3.716;2023-02-04T09:23:16;17.70;99.90
23329;DHT22;11836;51.050;3.716;2023-02-04T09:25:44;17.70;99.80
23329;DHT22;11836;51.050;3.716;2023-02-04T09:28:10;17.70;99.80
23329;DHT22;11836;51.050;3.716;2023-02-04T09:30:40;17.80;99.70
23329;DHT22;11836;51.050;3.716;2023-02-04T09:33:07;17.80;99.60
23329;DHT22;11836;51.050;3.716;2023-02-04T09:35:32;17.80;99.60
23329;DHT22;11836;51.050;3.716;2023-02-04T09:37:58;17.80;99.60
23329;DHT22;11836;51.050;3.716;2023-02-04T09:40:25;17.90;99.60
23329;DHT22;11836;51.050;3.716;2023-02-04T09:42:52;17.90;99.60
23329;DHT22;11836;51.050;3.716;2023-02-04T09:45:22;17.80;99.50
23329;DHT22;11836;51.050;3.716;2023-02-04T09:47:49;18.00;99.60
23329;DHT22;11836;51.050;3.716;2023-02-04T09:50:18;17.90;99.50
23329;DHT22;11836;51.050;3.716;2023-02-04T09:52:48;17.90;99.50
23329;DHT22;11836;51.050;3.716;2023-02-04T09:55:17;18.00;99.40
23329;DHT22;11836;51.050;3.716;2023-02-04T09:57:42;18.00;99.40
23329;DHT22;11836;51.050;3.716;2023-02-04T10:00:20;18.00;99.30
23329;DHT22;11836;51.050;3.716;2023-02-04T10:02:46;18.10;99.30
23329;DHT22;11836;51.050;3.716;2023-02-04T10:05:17;18.10;99.20
23329;DHT22;11836;51.050;3.716;2023-02-04T10:07:44;18.10;99.20
23329;DHT22;11836;51.050;3.716;2023-02-04T10:10:21;18.10;99.20
23329;DHT22;11836;51.050;3.716;2023-02-04T10:12:51;18.10;99.50
23329;DHT22;11836;51.050;3.716;2023-02-04T10:15:19;18.20;99.10
23329;DHT22;11836;51.050;3.716;2023-02-04T10:17:47;18.10;99.00
23329;DHT22;11836;51.050;3.716;2023-02-04T10:20:21;18.20;99.00
23329;DHT22;11836;51.050;3.716;2023-02-04T10:22:48;18.20;98.90
23329;DHT22;11836;51.050;3.716;2023-02-04T10:25:18;18.20;98.90
23329;DHT22;11836;51.050;3.716;2023-02-04T10:27:54;18.30;98.90
23329;DHT22;11836;51.050;3.716;2023-02-04T10:30:26;18.30;98.90
23329;DHT22;11836;51.050;3.716;2023-02-04T10:32:53;18.20;98.80
23329;DHT22;11836;51.050;3.716;2023-02-04T10:35:20;18.30;98.80
23329;DHT22;11836;51.050;3.716;2023-02-04T10:37:47;18.20;98.80
23329;DHT22;11836;51.050;3.716;2023-02-04T10:40:32;18.20;98.70
23329;DHT22;11836;51.050;3.716;2023-02-04T10:42:58;18.20;98.70
23329;DHT22;11836;51.050;3.716;2023-02-04T10:45:28;18.20;98.70
23329;DHT22;11836;51.050;3.716;2023-02-04T10:47:55;18.20;98.70
23329;DHT22;11836;51.050;3.716;2023-02-04T10:50:24;18.20;98.60
23329;DHT22;11836;51.050;3.716;2023-02-04T10:52:52;18.30;98.70
23329;DHT22;11836;51.050;3.716;2023-02-04T10:55:38;18.30;98.70
23329;DHT22;11836;51.050;3.716;2023-02-04T10:58:04;18.30;98.80
23329;DHT22;11836;51.050;3.716;2023-02-04T11:00:30;18.30;98.90
23329;DHT22;11836;51.050;3.716;2023-02-04T11:02:58;18.30;98.90
23329;DHT22;11836;51.050;3.716;2023-02-04T11:05:31;18.30;98.90
23329;DHT22;11836;51.050;3.716;2023-02-04T11:07:57;18.30;98.90
23329;DHT22;11836;51.050;3.716;2023-02-04T11:10:27;18.40;98.80
23329;DHT22;11836;51.050;3.716;2023-02-04T11:15:50;18.40;98.90
23329;DHT22;11836;51.050;3.716;2023-02-04T11:20:49;18.40;98.70
23329;DHT22;11836;51.050;3.716;2023-02-04T11:23:30;18.40;98.60
23329;DHT22;11836;51.050;3.716;2023-02-04T11:26:14;18.50;98.60
23329;DHT22;11836;51.050;3.716;2023-02-04T11:41:53;18.50;98.70
23329;DHT22;11836;51.050;3.716;2023-02-04T11:44:19;18.50;98.70
23329;DHT22;11836;51.050;3.716;2023-02-04T11:46:51;18.40;98.60
23329;DHT22;11836;51.050;3.716;2023-02-04T11:49:20;18.50;98.70
23329;DHT22;11836;51.050;3.716;2023-02-04T11:51:47;18.50;98.60
23329;DHT22;11836;51.050;3.716;2023-02-04T11:54:14;18.50;98.70
23329;DHT22;11836;51.050;3.716;2023-02-04T11:56:44;18.50;98.80
23329;DHT22;11836;51.050;3.716;2023-02-04T11:59:12;18.50;98.80
23329;DHT22;11836;51.050;3.716;2023-02-04T12:01:38;18.50;98.90
23329;DHT22;11836;51.050;3.716;2023-02-04T12:04:06;18.50;98.90
23329;DHT22;11836;51.050;3.716;2023-02-04T12:06:34;18.50;99.00
23329;DHT22;11836;51.050;3.716;2023-02-04T12:11:39;18.50;99.00
23329;DHT22;11836;51.050;3.716;2023-02-04T12:14:16;18.50;99.00
23329;DHT22;11836;51.050;3.716;2023-02-04T12:16:47;18.50;99.00
23329;DHT22;11836;51.050;3.716;2023-02-04T12:19:13;18.50;99.00
23329;DHT22;11836;51.050;3.716;2023-02-04T12:21:39;18.50;99.00
23329;DHT22;11836;51.050;3.716;2023-02-04T12:24:05;18.50;99.00
23329;DHT22;11836;51.050;3.716;2023-02-04T12:26:31;18.40;99.30
23329;DHT22;11836;51.050;3.716;2023-02-04T12:28:57;18.40;99.00
23329;DHT22;11836;51.050;3.716;2023-02-04T12:31:28;18.50;99.10
23329;DHT22;11836;51.050;3.716;2023-02-04T12:33:54;18.50;99.00
23329;DHT22;11836;51.050;3.716;2023-02-04T12:36:20;18.40;99.20
23329;DHT22;11836;51.050;3.716;2023-02-04T12:38:46;18.40;99.20
23329;DHT22;11836;51.050;3.716;2023-02-04T12:41:13;18.40;99.20
23329;DHT22;11836;51.050;3.716;2023-02-04T12:43:38;18.40;99.30
23329;DHT22;11836;51.050;3.716;2023-02-04T12:46:04;18.40;99.40
23329;DHT22;11836;51.050;3.716;2023-02-04T12:48:30;18.40;99.40
23329;DHT22;11836;51.050;3.716;2023-02-04T12:50:56;18.40;99.40
23329;DHT22;11836;51.050;3.716;2023-02-04T12:53:21;18.40;99.40
23329;DHT22;11836;51.050;3.716;2023-02-04T12:55:47;18.40;99.40
23329;DHT22;11836;51.050;3.716;2023-02-04T12:58:13;18.50;99.40
23329;DHT22;11836;51.050;3.716;2023-02-04T13:00:39;18.50;99.50
23329;DHT22;11836;51.050;3.716;2023-02-04T13:03:06;18.50;99.50
23329;DHT22;11836;51.050;3.716;2023-02-04T13:05:31;18.50;99.40
23329;DHT22;11836;51.050;3.716;2023-02-04T13:07:58;18.50;99.40
23329;DHT22;11836;51.050;3.716;2023-02-04T13:10:23;18.50;99.30
23329;DHT22;11836;51.050;3.716;2023-02-04T13:12:50;18.50;99.30
23329;DHT22;11836;51.050;3.716;2023-02-04T13:15:15;18.50;99.30
23329;DHT22;11836;51.050;3.716;2023-02-04T13:17:41;18.60;99.40
23329;DHT22;11836;51.050;3.716;2023-02-04T13:20:08;18.50;99.40
23329;DHT22;11836;51.050;3.716;2023-02-04T13:22:33;18.60;99.40
23329;DHT22;11836;51.050;3.716;2023-02-04T13:24:59;18.50;99.40
23329;DHT22;11836;51.050;3.716;2023-02-04T13:27:25;18.60;99.40
23329;DHT22;11836;51.050;3.716;2023-02-04T13:29:52;18.60;99.40
23329;DHT22;11836;51.050;3.716;2023-02-04T13:32:19;18.60;99.40
23329;DHT22;11836;51.050;3.716;2023-02-04T13:34:44;18.60;99.40
23329;DHT22;11836;51.050;3.716;2023-02-04T13:37:10;18.60;99.40
23329;DHT22;11836;51.050;3.716;2023-02-04T13:39:36;18.60;99.40
23329;DHT22;11836;51.050;3.716;2023-02-04T13:42:01;18.60;99.30
23329;DHT22;11836;51.050;3.716;2023-02-04T13:44:27;18.60;99.30
23329;DHT22;11836;51.050;3.716;2023-02-04T13:46:53;18.60;99.40
23329;DHT22;11836;51.050;3.716;2023-02-04T13:49:18;18.60;99.10
23329;DHT22;11836;51.050;3.716;2023-02-04T13:51:47;18.60;99.20
23329;DHT22;11836;51.050;3.716;2023-02-04T13:54:13;18.60;99.20
23329;DHT22;11836;51.050;3.716;2023-02-04T13:56:39;18.60;99.20
23329;DHT22;11836;51.050;3.716;2023-02-04T13:59:05;18.60;99.20
23329;DHT22;11836;51.050;3.716;2023-02-04T14:01:31;18.60;99.20
23329;DHT22;11836;51.050;3.716;2023-02-04T14:03:57;18.60;99.20
23329;DHT22;11836;51.050;3.716;2023-02-04T14:06:22;18.60;99.10
23329;DHT22;11836;51.050;3.716;2023-02-04T14:08:49;18.60;99.10
23329;DHT22;11836;51.050;3.716;2023-02-04T14:11:16;18.60;99.20
23329;DHT22;11836;51.050;3.716;2023-02-04T14:13:43;18.50;99.10
23329;DHT22;11836;51.050;3.716;2023-02-04T14:16:09;18.60;99.20
23329;DHT22;11836;51.050;3.716;2023-02-04T14:18:34;18.50;99.30
23329;DHT22;11836;51.050;3.716;2023-02-04T14:21:01;18.60;99.30
23329;DHT22;11836;51.050;3.716;2023-02-04T14:23:27;18.60;99.30
23329;DHT22;11836;51.050;3.716;2023-02-04T14:25:53;18.60;99.30
23329;DHT22;11836;51.050;3.716;2023-02-04T14:28:18;18.50;99.20
23329;DHT22;11836;51.050;3.716;2023-02-04T14:30:45;18.50;99.30
23329;DHT22;11836;51.050;3.716;2023-02-04T14:33:11;18.50;99.30
23329;DHT22;11836;51.050;3.716;2023-02-04T14:35:37;18.50;99.30
23329;DHT22;11836;51.050;3.716;2023-02-04T14:38:03;18.50;99.40
23329;DHT22;11836;51.050;3.716;2023-02-04T14:40:28;18.50;99.40
23329;DHT22;11836;51.050;3.716;2023-02-04T14:42:54;18.50;99.40
23329;DHT22;11836;51.050;3.716;2023-02-04T14:45:20;18.50;99.40
23329;DHT22;11836;51.050;3.716;2023-02-04T14:47:45;18.40;99.40
23329;DHT22;11836;51.050;3.716;2023-02-04T14:50:14;18.50;99.40
23329;DHT22;11836;51.050;3.716;2023-02-04T14:52:41;18.40;99.40
23329;DHT22;11836;51.050;3.716;2023-02-04T14:55:07;18.40;99.40
23329;DHT22;11836;51.050;3.716;2023-02-04T14:57:37;18.40;99.40
23329;DHT22;11836;51.050;3.716;2023-02-04T15:00:04;18.50;99.40
23329;DHT22;11836;51.050;3.716;2023-02-04T15:02:31;18.40;99.50
23329;DHT22;11836;51.050;3.716;2023-02-04T15:04:58;18.40;99.50
23329;DHT22;11836;51.050;3.716;2023-02-04T15:07:23;18.40;99.50
23329;DHT22;11836;51.050;3.716;2023-02-04T15:09:49;18.50;99.50
23329;DHT22;11836;51.050;3.716;2023-02-04T15:12:15;18.40;99.40
23329;DHT22;11836;51.050;3.716;2023-02-04T15:14:41;18.50;99.40
23329;DHT22;11836;51.050;3.716;2023-02-04T15:17:06;18.50;99.40
23329;DHT22;11836;51.050;3.716;2023-02-04T15:19:33;18.50;99.30
23329;DHT22;11836;51.050;3.716;2023-02-04T15:22:00;18.50;99.30
23329;DHT22;11836;51.050;3.716;2023-02-04T15:24:30;18.50;99.30
23329;DHT22;11836;51.050;3.716;2023-02-04T15:26:56;18.50;99.30
23329;DHT22;11836;51.050;3.716;2023-02-04T15:29:22;18.50;99.20
23329;DHT22;11836;51.050;3.716;2023-02-04T15:31:49;18.50;99.20
23329;DHT22;11836;51.050;3.716;2023-02-04T15:34:14;18.50;99.20
23329;DHT22;11836;51.050;3.716;2023-02-04T15:36:41;18.50;99.20
23329;DHT22;11836;51.050;3.716;2023-02-04T15:39:08;18.50;99.20
23329;DHT22;11836;51.050;3.716;2023-02-04T15:41:33;18.50;99.20
23329;DHT22;11836;51.050;3.716;2023-02-04T15:43:59;18.50;99.20
23329;DHT22;11836;51.050;3.716;2023-02-04T15:46:25;18.50;99.20
23329;DHT22;11836;51.050;3.716;2023-02-04T15:48:50;18.50;99.20